Time;durP1;ratioP1;P1;durP2;ratioP2;P2;SDS_P1;SDS_P2;PMS_P1;PMS_P2;Temp;Humidity;BMP_temperature;BMP_pressure;BME280_temperature;BME280_humidity;BME280_pressure;Samples;Min_cycle;Max_cycle;Signal;HPM_P1;HPM_P2
2021/05/24 00:00:25;;;;;;;2.72;1.10;;;;;;;;;;5077071;28;20032;-85
2021/05/24 00:02:52;;;;;;;1.50;1.30;;;;;;;;;;5077044;28;20399;-84
2021/05/24 00:05:19;;;;;;;2.85;1.25;;;;;;;;;;5076993;28;20070;-85
2021/05/24 00:07:45;;;;;;;1.48;1.10;;;;;;;;;;5077392;28;20313;-84
2021/05/24 00:10:13;;;;;;;1.20;0.98;;;;;;;;;;5077069;28;20151;-85
2021/05/24 00:12:46;;;;;;;2.10;1.40;;;;;;;;;;5077037;28;20052;-85
2021/05/24 00:18:16;;;;;;;3.75;1.95;;;;;;;;;;5077362;28;20063;-85
2021/05/24 00:20:44;;;;;;;1.50;1.25;;;;;;;;;;5075762;28;20048;-85
2021/05/24 00:23:10;;;;;;;1.60;1.30;;;;;;;;;;5076854;28;20417;-84
2021/05/24 00:25:37;;;;;;;5.10;1.17;;;;;;;;;;5075888;28;20028;-85
2021/05/24 00:28:04;;;;;;;2.97;1.50;;;;;;;;;;5077521;28;20048;-85
2021/05/24 00:30:33;;;;;;;1.88;1.58;;;;;;;;;;5080484;28;20104;-84
2021/05/24 00:33:03;;;;;;;1.48;1.30;;;;;;;;;;5080624;28;20052;-84
2021/05/24 00:35:29;;;;;;;1.77;1.10;;;;;;;;;;5079431;28;20342;-84
2021/05/24 00:37:55;;;;;;;2.33;1.15;;;;;;;;;;5080479;28;20052;-84
2021/05/24 00:40:22;;;;;;;2.60;1.00;;;;;;;;;;5079282;28;20402;-84
2021/05/24 00:42:48;;;;;;;1.48;0.98;;;;;;;;;;5079147;28;20056;-84
2021/05/24 00:45:15;;;;;;;3.10;1.20;;;;;;;;;;5080369;28;20029;-84
2021/05/24 00:47:41;;;;;;;1.67;1.20;;;;;;;;;;5080378;28;20023;-84
2021/05/24 00:50:08;;;;;;;1.90;1.02;;;;;;;;;;5078981;28;20032;-84
2021/05/24 00:52:34;;;;;;;2.60;1.13;;;;;;;;;;5079993;28;20032;-84
2021/05/24 00:55:00;;;;;;;1.73;1.50;;;;;;;;;;5080317;28;20029;-84
2021/05/24 00:57:27;;;;;;;2.22;1.85;;;;;;;;;;5079866;28;20028;-84
2021/05/24 00:59:54;;;;;;;3.30;2.20;;;;;;;;;;5080100;28;20078;-84
2021/05/24 01:02:20;;;;;;;3.97;3.00;;;;;;;;;;5079484;28;20028;-84
2021/05/24 01:04:47;;;;;;;4.95;4.45;;;;;;;;;;5079784;28;20425;-84
2021/05/24 01:07:13;;;;;;;3.88;3.42;;;;;;;;;;5079744;28;20102;-83
2021/05/24 01:09:39;;;;;;;2.50;1.95;;;;;;;;;;5079701;28;20376;-83
2021/05/24 01:12:05;;;;;;;1.80;1.63;;;;;;;;;;5079698;28;20025;-83
2021/05/24 01:15:08;;;;;;;2.97;1.50;;;;;;;;;;5078452;28;20036;-83
2021/05/24 01:17:34;;;;;;;4.45;1.58;;;;;;;;;;5079578;28;20024;-85
2021/05/24 01:20:00;;;;;;;3.00;1.60;;;;;;;;;;5079219;28;20028;-84
2021/05/24 01:22:26;;;;;;;3.65;1.98;;;;;;;;;;5079600;28;20085;-85
2021/05/24 01:24:52;;;;;;;3.55;1.30;;;;;;;;;;5079836;28;20021;-85
2021/05/24 01:27:19;;;;;;;2.15;1.67;;;;;;;;;;5079698;28;20020;-85
2021/05/24 01:29:45;;;;;;;2.08;1.50;;;;;;;;;;5078443;28;20017;-84
2021/05/24 01:32:11;;;;;;;5.25;1.50;;;;;;;;;;5078388;28;20025;-85
2021/05/24 01:34:38;;;;;;;1.95;1.42;;;;;;;;;;5079251;28;20021;-84
2021/05/24 01:37:05;;;;;;;2.45;1.48;;;;;;;;;;5078252;28;20028;-84
2021/05/24 01:39:31;;;;;;;1.77;1.42;;;;;;;;;;5078958;28;20044;-84
2021/05/24 01:41:57;;;;;;;4.50;1.58;;;;;;;;;;5078835;28;20091;-83
2021/05/24 01:44:33;;;;;;;2.80;1.98;;;;;;;;;;5078905;28;20410;-84
2021/05/24 01:47:00;;;;;;;2.88;1.58;;;;;;;;;;5078978;28;20112;-84
2021/05/24 01:49:26;;;;;;;2.15;1.65;;;;;;;;;;5079176;28;20021;-84
2021/05/24 01:51:53;;;;;;;2.92;1.70;;;;;;;;;;5077664;28;20410;-84
2021/05/24 01:54:19;;;;;;;4.50;1.60;;;;;;;;;;5078688;28;20035;-83
2021/05/24 01:56:45;;;;;;;3.92;1.83;;;;;;;;;;5077727;28;20039;-84
2021/05/24 01:59:27;;;;;;;2.38;1.73;;;;;;;;;;5077833;28;20320;-84
2021/05/24 02:01:53;;;;;;;3.53;1.60;;;;;;;;;;5078790;28;20021;-84
2021/05/24 02:04:19;;;;;;;3.25;1.63;;;;;;;;;;5078911;28;20260;-84
2021/05/24 02:06:45;;;;;;;5.53;2.10;;;;;;;;;;5078608;28;20021;-84
2021/05/24 02:09:11;;;;;;;4.70;1.80;;;;;;;;;;5077674;28;20020;-84
2021/05/24 02:11:37;;;;;;;2.85;1.75;;;;;;;;;;5077524;28;20028;-84
2021/05/24 02:14:04;;;;;;;3.65;1.85;;;;;;;;;;5077535;28;20414;-84
2021/05/24 02:16:39;;;;;;;2.92;1.80;;;;;;;;;;5078459;28;20028;-85
2021/05/24 02:19:06;;;;;;;3.45;2.00;;;;;;;;;;5078779;28;20029;-85
2021/05/24 02:21:32;;;;;;;3.53;2.17;;;;;;;;;;5078106;28;20055;-84
2021/05/24 02:23:58;;;;;;;3.47;2.30;;;;;;;;;;5078309;28;20398;-86
2021/05/24 02:26:24;;;;;;;4.38;2.10;;;;;;;;;;5078573;28;20352;-86
2021/05/24 02:29:28;;;;;;;4.07;2.30;;;;;;;;;;5078241;28;20016;-85
2021/05/24 02:31:54;;;;;;;2.38;1.98;;;;;;;;;;5077997;28;20025;-84
2021/05/24 02:34:20;;;;;;;2.90;2.20;;;;;;;;;;5078032;28;20398;-83
2021/05/24 02:36:46;;;;;;;3.08;2.08;;;;;;;;;;5078003;28;20032;-84
2021/05/24 02:39:12;;;;;;;3.50;1.83;;;;;;;;;;5077962;28;20429;-84
2021/05/24 02:41:38;;;;;;;2.45;2.00;;;;;;;;;;5076566;28;20037;-84
2021/05/24 02:44:07;;;;;;;3.30;2.67;;;;;;;;;;5076849;28;20025;-83
2021/05/24 02:46:34;;;;;;;3.60;2.70;;;;;;;;;;5077923;28;20070;-86
2021/05/24 02:49:00;;;;;;;7.47;3.10;;;;;;;;;;5077083;28;20073;-86
2021/05/24 02:51:26;;;;;;;3.75;2.70;;;;;;;;;;5077616;28;20032;-86
2021/05/24 02:53:52;;;;;;;18.40;14.00;;;;;;;;;;5078135;28;20047;-86
2021/05/24 02:56:18;;;;;;;19.98;17.88;;;;;;;;;;5078107;28;20104;-86
2021/05/24 02:58:44;;;;;;;15.32;13.35;;;;;;;;;;5077855;28;20040;-86
2021/05/24 03:01:10;;;;;;;8.50;7.18;;;;;;;;;;5077761;28;20433;-85
2021/05/24 03:03:37;;;;;;;5.22;4.63;;;;;;;;;;5078061;28;20287;-85
2021/05/24 03:06:04;;;;;;;6.32;4.95;;;;;;;;;;5076727;28;20383;-84
2021/05/24 03:08:31;;;;;;;8.80;4.75;;;;;;;;;;5077655;28;20048;-85
2021/05/24 03:10:58;;;;;;;10.57;4.78;;;;;;;;;;5076812;28;20357;-85
2021/05/24 03:13:25;;;;;;;8.48;4.53;;;;;;;;;;5076691;28;20029;-84
2021/05/24 03:15:54;;;;;;;17.17;6.40;;;;;;;;;;5077729;28;20084;-84
2021/05/24 03:18:21;;;;;;;10.63;4.13;;;;;;;;;;5077511;28;20028;-84
2021/05/24 03:20:47;;;;;;;6.05;2.95;;;;;;;;;;5077368;28;20053;-84
2021/05/24 03:23:13;;;;;;;4.95;2.53;;;;;;;;;;5077379;28;20017;-84
2021/05/24 03:25:40;;;;;;;2.95;2.28;;;;;;;;;;5076477;28;20032;-84
2021/05/24 03:28:06;;;;;;;4.38;2.47;;;;;;;;;;5076540;28;20042;-85
2021/05/24 03:30:52;;;;;;;5.35;2.40;;;;;;;;;;5076472;28;20326;-83
2021/05/24 03:33:18;;;;;;;7.10;3.20;;;;;;;;;;5077450;28;20048;-84
2021/05/24 03:35:45;;;;;;;13.10;3.78;;;;;;;;;;5076900;28;20445;-84
2021/05/24 03:38:11;;;;;;;9.23;3.17;;;;;;;;;;5077562;28;20045;-85
2021/05/24 03:40:37;;;;;;;7.47;2.85;;;;;;;;;;5077596;28;20031;-84
2021/05/24 03:43:04;;;;;;;6.28;2.40;;;;;;;;;;5077070;28;20024;-84
2021/05/24 03:45:33;;;;;;;3.72;2.50;;;;;;;;;;5077387;28;20024;-84
2021/05/24 03:47:59;;;;;;;6.38;3.05;;;;;;;;;;5077628;28;20024;-84
2021/05/24 03:50:25;;;;;;;4.47;2.50;;;;;;;;;;5077408;28;20035;-85
2021/05/24 03:52:52;;;;;;;5.43;2.65;;;;;;;;;;5077152;28;20017;-84
2021/05/24 03:55:18;;;;;;;4.93;2.50;;;;;;;;;;5076140;28;20029;-85
2021/05/24 03:57:46;;;;;;;5.95;2.78;;;;;;;;;;5076255;28;20025;-84
2021/05/24 04:00:12;;;;;;;7.57;2.50;;;;;;;;;;5077479;28;20025;-84
2021/05/24 04:02:39;;;;;;;4.10;2.78;;;;;;;;;;5076250;28;20025;-85
2021/05/24 04:05:29;;;;;;;3.10;2.38;;;;;;;;;;5079916;28;20021;-83
2021/05/24 04:07:56;;;;;;;4.93;2.63;;;;;;;;;;5080772;28;20143;-84
2021/05/24 04:10:27;;;;;;;7.03;2.55;;;;;;;;;;5080879;28;20025;-85
2021/05/24 04:12:53;;;;;;;5.57;2.80;;;;;;;;;;5079827;28;20027;-85
2021/05/24 04:18:23;;;;;;;11.02;2.90;;;;;;;;;;5080940;28;20475;-85
2021/05/24 04:20:50;;;;;;;4.20;2.65;;;;;;;;;;5080394;28;20052;-84
2021/05/24 04:23:16;;;;;;;3.97;2.38;;;;;;;;;;5080815;28;20031;-85
2021/05/24 04:25:43;;;;;;;3.70;2.38;;;;;;;;;;5079801;28;20394;-84
2021/05/24 04:28:09;;;;;;;3.08;2.33;;;;;;;;;;5080651;28;20024;-85
2021/05/24 04:33:38;;;;;;;4.57;3.20;;;;;;;;;;5080715;28;20318;-85
2021/05/24 04:36:05;;;;;;;4.60;2.63;;;;;;;;;;5080680;28;20314;-85
2021/05/24 04:38:31;;;;;;;3.92;2.85;;;;;;;;;;5080297;28;20074;-86
2021/05/24 04:40:57;;;;;;;3.17;2.00;;;;;;;;;;5080528;28;20028;-85
2021/05/24 04:43:28;;;;;;;2.70;2.10;;;;;;;;;;5080614;28;20024;-86
2021/05/24 04:46:12;;;;;;;3.95;2.80;;;;;;;;;;5079535;28;20032;-85
2021/05/24 04:48:38;;;;;;;2.65;2.22;;;;;;;;;;5080308;28;20025;-86
2021/05/24 04:51:05;;;;;;;2.97;2.20;;;;;;;;;;5079121;28;20341;-85
2021/05/24 04:53:32;;;;;;;7.30;2.40;;;;;;;;;;5079275;28;20349;-83
2021/05/24 04:55:58;;;;;;;4.40;2.63;;;;;;;;;;5083366;28;20022;-85
2021/05/24 04:58:24;;;;;;;6.03;2.70;;;;;;;;;;5099965;28;20024;-83
2021/05/24 05:00:51;;;;;;;4.38;2.35;;;;;;;;;;5098503;28;20306;-83
2021/05/24 05:03:17;;;;;;;2.58;2.20;;;;;;;;;;5100337;28;20028;-83
2021/05/24 05:05:43;;;;;;;2.67;2.22;;;;;;;;;;5099847;28;20103;-82
2021/05/24 05:08:09;;;;;;;4.15;2.35;;;;;;;;;;5086785;28;20028;-82
2021/05/24 05:10:36;;;;;;;3.30;2.20;;;;;;;;;;5079923;28;20020;-83
2021/05/24 05:13:02;;;;;;;5.05;2.35;;;;;;;;;;5078585;28;20065;-82
2021/05/24 05:15:28;;;;;;;4.63;2.65;;;;;;;;;;5077193;28;20115;-84
2021/05/24 05:17:54;;;;;;;3.10;2.20;;;;;;;;;;5062003;28;20017;-83
2021/05/24 05:20:20;;;;;;;4.68;2.55;;;;;;;;;;5059415;28;20045;-83
2021/05/24 05:22:46;;;;;;;5.13;1.85;;;;;;;;;;5058354;28;20037;-83
2021/05/24 05:25:12;;;;;;;2.83;1.42;;;;;;;;;;5058729;28;20025;-83
2021/05/24 05:27:38;;;;;;;3.05;1.40;;;;;;;;;;5070119;28;20025;-83
2021/05/24 05:30:05;;;;;;;5.35;1.52;;;;;;;;;;5078223;28;20477;-83
2021/05/24 05:32:31;;;;;;;3.30;1.60;;;;;;;;;;5079025;28;20036;-85
2021/05/24 05:34:57;;;;;;;3.53;1.65;;;;;;;;;;5079099;28;20031;-84
2021/05/24 05:37:23;;;;;;;3.03;1.23;;;;;;;;;;5079186;28;20024;-84
2021/05/24 05:39:54;;;;;;;3.67;1.65;;;;;;;;;;5078423;28;20318;-85
2021/05/24 05:42:20;;;;;;;4.30;1.60;;;;;;;;;;5077971;28;20055;-85
2021/05/24 05:44:47;;;;;;;3.97;1.60;;;;;;;;;;5079401;28;20020;-84
2021/05/24 05:47:13;;;;;;;3.00;1.95;;;;;;;;;;5079340;28;20017;-84
2021/05/24 05:49:39;;;;;;;8.68;2.42;;;;;;;;;;5079271;28;20041;-84
2021/05/24 05:52:05;;;;;;;4.30;2.55;;;;;;;;;;5078911;28;20044;-85
2021/05/24 05:54:32;;;;;;;4.68;2.55;;;;;;;;;;5079199;28;20070;-85
2021/05/24 05:56:58;;;;;;;6.18;2.53;;;;;;;;;;5079179;28;20032;-85
2021/05/24 05:59:24;;;;;;;5.30;2.05;;;;;;;;;;5078711;28;20032;-87
2021/05/24 06:01:50;;;;;;;4.40;2.15;;;;;;;;;;5077437;28;20024;-86
2021/05/24 06:04:16;;;;;;;2.55;1.88;;;;;;;;;;5076396;28;20025;-84
2021/05/24 06:06:42;;;;;;;5.28;2.10;;;;;;;;;;5058638;28;20021;-84
2021/05/24 06:09:08;;;;;;;5.05;1.67;;;;;;;;;;5068670;28;20028;-82
2021/05/24 06:11:34;;;;;;;5.90;1.70;;;;;;;;;;5066079;28;20021;-80
2021/05/24 06:14:00;;;;;;;5.38;2.25;;;;;;;;;;5065584;28;20037;-81
2021/05/24 06:16:26;;;;;;;5.13;1.50;;;;;;;;;;5076952;28;20032;-79
2021/05/24 06:18:52;;;;;;;4.22;1.88;;;;;;;;;;5078278;28;20036;-80
2021/05/24 06:21:18;;;;;;;3.42;1.40;;;;;;;;;;5077646;28;20053;-80
2021/05/24 06:23:46;;;;;;;9.10;2.13;;;;;;;;;;5078227;28;20040;-80
2021/05/24 06:26:13;;;;;;;2.97;2.10;;;;;;;;;;5077256;28;20019;-79
2021/05/24 06:28:39;;;;;;;6.05;1.50;;;;;;;;;;5077812;28;20095;-80
2021/05/24 06:31:05;;;;;;;6.88;2.65;;;;;;;;;;5077627;28;20444;-80
2021/05/24 06:33:31;;;;;;;2.72;1.50;;;;;;;;;;5077637;28;20318;-82
2021/05/24 06:35:57;;;;;;;3.40;1.65;;;;;;;;;;5077703;28;20035;-80
2021/05/24 06:38:23;;;;;;;2.90;1.60;;;;;;;;;;5076539;28;20542;-80
2021/05/24 06:40:49;;;;;;;3.67;2.05;;;;;;;;;;5076868;28;20032;-84
2021/05/24 06:43:15;;;;;;;21.35;12.68;;;;;;;;;;5076430;28;20024;-81
2021/05/24 06:45:41;;;;;;;27.40;14.80;;;;;;;;;;5077225;28;20025;-80
2021/05/24 06:48:07;;;;;;;18.38;9.57;;;;;;;;;;5077430;28;20029;-82
2021/05/24 06:50:33;;;;;;;14.88;8.75;;;;;;;;;;5077355;28;20033;-80
2021/05/24 06:53:00;;;;;;;3.45;1.95;;;;;;;;;;5076268;28;20064;-81
2021/05/24 06:55:26;;;;;;;5.28;3.28;;;;;;;;;;5077555;28;20025;-80
2021/05/24 06:57:52;;;;;;;5.30;2.88;;;;;;;;;;5077388;28;20020;-81
2021/05/24 07:00:18;;;;;;;3.70;1.30;;;;;;;;;;5076205;28;20012;-80
2021/05/24 07:02:47;;;;;;;4.32;1.90;;;;;;;;;;5077060;28;20024;-81
2021/05/24 07:05:13;;;;;;;4.20;1.90;;;;;;;;;;5077135;28;20048;-80
2021/05/24 07:07:39;;;;;;;2.55;1.48;;;;;;;;;;5076094;28;20055;-80
2021/05/24 07:10:06;;;;;;;5.38;2.10;;;;;;;;;;5077402;28;20028;-80
2021/05/24 07:12:33;;;;;;;5.60;2.88;;;;;;;;;;5076068;28;20386;-80
2021/05/24 07:14:59;;;;;;;6.05;3.50;;;;;;;;;;5077179;28;20062;-80
2021/05/24 07:17:25;;;;;;;4.65;2.42;;;;;;;;;;5077069;28;20021;-81
2021/05/24 07:19:51;;;;;;;10.73;6.10;;;;;;;;;;5076853;28;20020;-81
2021/05/24 07:22:18;;;;;;;4.82;2.70;;;;;;;;;;5076772;28;20131;-80
2021/05/24 07:24:44;;;;;;;3.47;1.65;;;;;;;;;;5077207;28;20021;-80
2021/05/24 07:27:10;;;;;;;10.80;6.22;;;;;;;;;;5075749;28;20178;-80
2021/05/24 07:29:36;;;;;;;13.43;8.32;;;;;;;;;;5076926;28;20020;-80
2021/05/24 07:32:03;;;;;;;2.30;1.58;;;;;;;;;;5076850;28;20020;-81
2021/05/24 07:34:29;;;;;;;12.77;7.28;;;;;;;;;;5075839;28;20032;-80
2021/05/24 07:36:55;;;;;;;3.22;1.80;;;;;;;;;;5077253;28;20048;-80
2021/05/24 07:39:21;;;;;;;4.43;2.33;;;;;;;;;;5081005;28;20420;-80
2021/05/24 07:41:47;;;;;;;3.28;1.77;;;;;;;;;;5079751;28;20036;-80
2021/05/24 07:44:14;;;;;;;4.57;2.00;;;;;;;;;;5081088;28;20024;-81
2021/05/24 07:46:40;;;;;;;2.00;1.35;;;;;;;;;;5080516;28;20032;-81
2021/05/24 07:49:06;;;;;;;9.93;5.57;;;;;;;;;;5080995;28;20364;-81
2021/05/24 07:51:32;;;;;;;5.03;1.25;;;;;;;;;;5081275;28;20037;-80
2021/05/24 07:53:58;;;;;;;3.53;1.60;;;;;;;;;;5079705;28;20067;-81
2021/05/24 07:56:24;;;;;;;2.22;1.58;;;;;;;;;;5080876;28;20024;-81
2021/05/24 07:58:50;;;;;;;3.80;1.00;;;;;;;;;;5080621;28;20069;-81
2021/05/24 08:01:16;;;;;;;2.58;1.08;;;;;;;;;;5080534;28;20047;-81
2021/05/24 08:03:42;;;;;;;5.18;2.03;;;;;;;;;;5080505;28;20013;-81
2021/05/24 08:06:08;;;;;;;4.18;0.90;;;;;;;;;;5080735;28;20024;-81
2021/05/24 08:08:34;;;;;;;1.17;0.70;;;;;;;;;;5080304;28;20347;-81
2021/05/24 08:11:00;;;;;;;2.72;1.10;;;;;;;;;;5079438;28;20054;-81
2021/05/24 08:13:28;;;;;;;2.20;1.17;;;;;;;;;;5080621;28;20306;-81
2021/05/24 08:15:54;;;;;;;2.28;1.05;;;;;;;;;;5080326;28;20034;-81
2021/05/24 08:18:21;;;;;;;2.63;1.10;;;;;;;;;;5080411;28;20024;-81
2021/05/24 08:20:48;;;;;;;2.67;1.15;;;;;;;;;;5080170;28;20056;-81
2021/05/24 08:23:14;;;;;;;4.88;1.73;;;;;;;;;;5080179;28;20025;-81
2021/05/24 08:25:40;;;;;;;3.50;1.50;;;;;;;;;;5080109;28;20066;-81
2021/05/24 08:28:06;;;;;;;2.95;1.52;;;;;;;;;;5080320;28;20021;-81
2021/05/24 08:30:34;;;;;;;3.15;1.50;;;;;;;;;;5079988;28;20046;-81
2021/05/24 08:33:00;;;;;;;3.92;2.22;;;;;;;;;;5078925;28;20021;-81
2021/05/24 08:35:26;;;;;;;2.20;1.00;;;;;;;;;;5080260;28;20066;-81
2021/05/24 08:37:52;;;;;;;1.70;0.93;;;;;;;;;;5080131;28;20060;-81
2021/05/24 08:40:19;;;;;;;2.28;1.10;;;;;;;;;;5079883;28;20028;-81
2021/05/24 08:42:46;;;;;;;3.95;1.30;;;;;;;;;;5079503;28;20326;-81
2021/05/24 08:45:12;;;;;;;6.70;2.00;;;;;;;;;;5077237;28;20044;-79
2021/05/24 08:47:39;;;;;;;4.15;1.90;;;;;;;;;;5074602;28;20027;-81
2021/05/24 08:50:06;;;;;;;4.20;1.52;;;;;;;;;;5077705;28;20108;-81
2021/05/24 08:52:32;;;;;;;11.27;6.75;;;;;;;;;;5078955;28;20422;-81
2021/05/24 08:54:58;;;;;;;9.98;4.70;;;;;;;;;;5078951;28;20033;-80
2021/05/24 08:57:25;;;;;;;4.05;2.40;;;;;;;;;;5079407;28;20020;-80
2021/05/24 08:59:51;;;;;;;21.55;14.32;;;;;;;;;;5079368;28;20481;-80
2021/05/24 09:02:17;;;;;;;5.93;2.75;;;;;;;;;;5079142;28;20056;-79
2021/05/24 09:04:48;;;;;;;8.95;4.78;;;;;;;;;;5078440;28;20434;-82
2021/05/24 09:07:15;;;;;;;3.72;1.60;;;;;;;;;;5078489;28;20355;-81
2021/05/24 09:09:57;;;;;;;6.40;4.30;;;;;;;;;;5078235;28;20021;-80
2021/05/24 09:12:23;;;;;;;;;;;;;;;;;;5079957;28;20025;-80
2021/05/24 09:14:56;;;;;;;2.42;1.05;;;;;;;;;;5078174;28;19999;-79
2021/05/24 09:17:22;;;;;;;5.40;1.98;;;;;;;;;;5078001;28;20418;-79
2021/05/24 09:19:49;;;;;;;2.03;1.10;;;;;;;;;;5078949;28;20028;-79
2021/05/24 09:22:15;;;;;;;5.50;3.20;;;;;;;;;;5077987;28;20127;-79
2021/05/24 09:24:42;;;;;;;13.05;7.05;;;;;;;;;;5079498;28;20103;-79
2021/05/24 09:27:20;;;;;;;5.22;1.92;;;;;;;;;;5078838;28;20414;-79
2021/05/24 09:29:47;;;;;;;17.15;12.68;;;;;;;;;;5078802;28;20028;-79
2021/05/24 09:32:13;;;;;;;3.38;1.95;;;;;;;;;;5077857;28;20036;-79
2021/05/24 09:34:40;;;;;;;7.05;4.18;;;;;;;;;;5078527;28;20024;-81
2021/05/24 09:37:06;;;;;;;7.38;3.05;;;;;;;;;;5077787;28;20036;-80
2021/05/24 09:39:33;;;;;;;3.25;2.00;;;;;;;;;;5077631;28;20398;-81
2021/05/24 09:42:01;;;;;;;4.80;3.30;;;;;;;;;;5078660;28;20029;-81
2021/05/24 09:44:30;;;;;;;6.43;2.00;;;;;;;;;;5078621;28;20031;-80
2021/05/24 09:46:56;;;;;;;4.47;3.10;;;;;;;;;;5078855;28;20071;-81
2021/05/24 09:49:27;;;;;;;7.07;2.47;;;;;;;;;;5078687;28;20031;-81
2021/05/24 09:51:53;;;;;;;3.33;1.83;;;;;;;;;;5078645;28;20115;-81
2021/05/24 09:54:22;;;;;;;2.35;1.40;;;;;;;;;;5078455;28;20425;-81
2021/05/24 09:56:48;;;;;;;3.80;1.67;;;;;;;;;;5078558;28;20032;-81
2021/05/24 09:59:19;;;;;;;5.07;1.33;;;;;;;;;;5078387;28;20021;-81
2021/05/24 10:01:47;;;;;;;2.33;1.70;;;;;;;;;;5077120;28;20021;-81
2021/05/24 10:04:18;;;;;;;3.65;1.27;;;;;;;;;;5078303;28;20062;-81
2021/05/24 10:06:44;;;;;;;6.20;1.85;;;;;;;;;;5078194;28;20309;-81
2021/05/24 10:09:11;;;;;;;2.85;1.10;;;;;;;;;;5078114;28;20024;-81
2021/05/24 10:11:39;;;;;;;3.72;1.60;;;;;;;;;;5078124;28;20037;-81
2021/05/24 10:14:06;;;;;;;2.55;1.20;;;;;;;;;;5077183;28;20070;-81
2021/05/24 10:16:35;;;;;;;3.40;1.52;;;;;;;;;;5078316;28;20088;-82
2021/05/24 10:19:01;;;;;;;3.50;2.13;;;;;;;;;;5077986;28;20028;-81
2021/05/24 10:21:28;;;;;;;2.97;1.20;;;;;;;;;;5077818;28;20063;-81
2021/05/24 10:23:54;;;;;;;3.00;1.13;;;;;;;;;;5077937;28;20047;-81
2021/05/24 10:26:20;;;;;;;5.10;1.63;;;;;;;;;;5077740;28;20028;-81
2021/05/24 10:28:47;;;;;;;3.90;1.10;;;;;;;;;;5078082;28;20074;-81
2021/05/24 10:31:18;;;;;;;5.85;1.23;;;;;;;;;;5076412;28;20128;-81
2021/05/24 10:33:45;;;;;;;1.83;1.08;;;;;;;;;;5077943;28;20028;-82
2021/05/24 10:36:18;;;;;;;2.63;1.42;;;;;;;;;;5076626;28;20432;-80
2021/05/24 10:38:44;;;;;;;1.80;1.08;;;;;;;;;;5076553;28;20029;-80
2021/05/24 10:41:11;;;;;;;56.22;20.75;;;;;;;;;;5077326;28;20116;-80
2021/05/24 10:43:45;;;;;;;19.30;5.82;;;;;;;;;;5077470;28;20055;-80
2021/05/24 10:46:37;;;;;;;10.60;3.53;;;;;;;;;;5077315;28;20024;-80
2021/05/24 10:49:06;;;;;;;4.47;1.10;;;;;;;;;;5074055;28;20029;-80
2021/05/24 10:51:47;;;;;;;3.30;1.02;;;;;;;;;;5077645;28;20040;-80
2021/05/24 10:54:14;;;;;;;2.20;1.13;;;;;;;;;;5077538;28;20021;-80
2021/05/24 10:56:43;;;;;;;3.75;1.63;;;;;;;;;;5076377;28;20169;-81
2021/05/24 10:59:28;;;;;;;3.60;0.98;;;;;;;;;;5076341;28;20068;-80
2021/05/24 11:02:00;;;;;;;33.35;2.55;;;;;;;;;;5077150;28;20070;-81
2021/05/24 11:04:52;;;;;;;10.30;1.70;;;;;;;;;;5077117;28;20046;-81
2021/05/24 11:07:29;;;;;;;2.72;1.15;;;;;;;;;;4996178;28;20543;-80
2021/05/24 11:10:18;;;;;;;4.75;0.95;;;;;;;;;;4979816;28;20302;-81
2021/05/24 11:12:44;;;;;;;2.63;0.93;;;;;;;;;;4995614;28;20309;-80
2021/05/24 11:15:10;;;;;;;2.97;1.10;;;;;;;;;;4996045;28;20030;-81
2021/05/24 11:17:54;;;;;;;3.22;0.85;;;;;;;;;;4995857;28;20035;-80
2021/05/24 11:20:30;;;;;;;2.05;0.98;;;;;;;;;;4995634;28;20120;-80
2021/05/24 11:25:58;;;;;;;3.58;1.08;;;;;;;;;;4995866;28;20032;-80
2021/05/24 11:28:33;;;;;;;3.33;1.20;;;;;;;;;;4995821;28;20023;-80
2021/05/24 11:31:21;;;;;;;7.93;1.08;;;;;;;;;;4995775;28;20362;-80
2021/05/24 11:33:50;;;;;;;11.88;1.20;;;;;;;;;;4956926;29;20086;-80
2021/05/24 11:36:21;;;;;;;20.13;9.63;;;;;;;;;;4957017;29;20079;-81
2021/05/24 11:39:02;;;;;;;7.07;1.90;;;;;;;;;;4957166;29;20421;-81
2021/05/24 11:41:31;;;;;;;7.28;1.50;;;;;;;;;;4956987;29;20027;-80
2021/05/24 11:43:59;;;;;;;9.50;2.80;;;;;;;;;;4986913;28;20029;-80
2021/05/24 11:46:25;;;;;;;4.00;1.90;;;;;;;;;;5034915;28;20109;-81
2021/05/24 11:48:52;;;;;;;2.83;1.10;;;;;;;;;;5034988;28;20049;-80
2021/05/24 11:51:20;;;;;;;9.43;1.63;;;;;;;;;;5034889;28;20427;-83
2021/05/24 11:54:00;;;;;;;4.32;2.40;;;;;;;;;;5035153;28;20080;-83
2021/05/24 17:33:37;;;;;;;10.02;5.05;;;;;;;;;;5055226;28;20345;-82
2021/05/24 17:36:03;;;;;;;5.93;5.32;;;;;;;;;;5052361;28;20039;-82
2021/05/24 17:38:30;;;;;;;4.97;4.47;;;;;;;;;;5054210;28;20112;-82
2021/05/24 17:40:56;;;;;;;14.45;7.95;;;;;;;;;;5054083;28;20029;-82
2021/05/24 17:43:22;;;;;;;7.00;5.07;;;;;;;;;;5039003;28;20048;-82
2021/05/24 17:46:07;;;;;;;9.30;5.07;;;;;;;;;;5034347;28;20144;-82
2021/05/24 17:48:33;;;;;;;7.25;4.70;;;;;;;;;;5033022;28;20030;-83
2021/05/24 17:51:13;;;;;;;7.90;5.20;;;;;;;;;;5033459;28;20033;-82
2021/05/24 17:53:39;;;;;;;8.93;5.68;;;;;;;;;;5034538;28;20037;-82
2021/05/24 17:56:07;;;;;;;7.47;4.90;;;;;;;;;;5033228;28;20121;-82
2021/05/24 17:58:38;;;;;;;9.18;6.28;;;;;;;;;;5032934;28;20041;-82
2021/05/24 18:01:04;;;;;;;5.75;4.57;;;;;;;;;;5034317;28;20497;-82
2021/05/24 18:03:30;;;;;;;5.15;4.30;;;;;;;;;;5034213;28;20052;-82
2021/05/24 18:05:56;;;;;;;5.32;4.65;;;;;;;;;;5034158;28;20026;-82
2021/05/24 18:08:22;;;;;;;7.60;4.50;;;;;;;;;;5033094;28;20048;-82
2021/05/24 18:10:48;;;;;;;8.20;5.72;;;;;;;;;;5033009;28;20030;-82
2021/05/24 18:13:15;;;;;;;8.38;6.07;;;;;;;;;;5032637;28;20034;-82
2021/05/24 18:15:41;;;;;;;6.00;3.97;;;;;;;;;;5034024;28;20064;-83
2021/05/24 18:18:18;;;;;;;5.68;4.82;;;;;;;;;;5034067;28;20014;-82
2021/05/24 18:20:45;;;;;;;7.22;5.15;;;;;;;;;;5033885;28;20068;-83
2021/05/24 18:23:12;;;;;;;5.88;4.80;;;;;;;;;;5033669;28;20029;-82
2021/05/24 18:25:38;;;;;;;9.60;4.75;;;;;;;;;;5032906;28;20117;-82
2021/05/24 18:28:05;;;;;;;7.32;5.32;;;;;;;;;;5033374;28;20034;-82
2021/05/24 18:30:31;;;;;;;6.22;5.07;;;;;;;;;;5033784;28;20038;-82
2021/05/24 18:33:01;;;;;;;8.32;4.18;;;;;;;;;;5033453;28;20041;-83
2021/05/24 18:35:31;;;;;;;8.35;4.80;;;;;;;;;;5049244;28;20025;-83
2021/05/24 18:38:01;;;;;;;6.25;4.50;;;;;;;;;;5032691;28;20053;-82
2021/05/24 18:40:27;;;;;;;10.60;7.13;;;;;;;;;;5030274;28;20044;-83
2021/05/24 18:42:53;;;;;;;6.82;5.22;;;;;;;;;;5030749;28;20029;-82
2021/05/24 18:45:22;;;;;;;10.73;8.05;;;;;;;;;;5020137;28;20034;-83
2021/05/24 18:47:48;;;;;;;7.82;5.22;;;;;;;;;;5019187;28;20030;-83
2021/05/24 18:50:14;;;;;;;5.95;4.07;;;;;;;;;;5019858;28;20080;-83
2021/05/24 18:52:41;;;;;;;6.13;4.78;;;;;;;;;;5035215;28;20034;-83
2021/05/24 18:55:08;;;;;;;17.85;12.13;;;;;;;;;;5034968;28;20033;-82
2021/05/24 18:57:37;;;;;;;6.50;4.95;;;;;;;;;;5018946;28;20069;-80
2021/05/24 19:00:11;;;;;;;8.55;6.10;;;;;;;;;;5019943;28;20046;-81
2021/05/24 19:02:46;;;;;;;5.93;4.65;;;;;;;;;;5019515;28;20088;-82
2021/05/24 19:07:57;;;;;;;23.48;14.80;;;;;;;;;;5019550;28;20060;-83
2021/05/24 19:10:23;;;;;;;9.48;6.38;;;;;;;;;;5019812;28;20419;-88
2021/05/24 19:12:49;;;;;;;15.02;8.77;;;;;;;;;;5019772;28;20041;-82
2021/05/24 19:15:15;;;;;;;12.10;6.10;;;;;;;;;;5019612;28;20045;-81
2021/05/24 19:17:41;;;;;;;8.52;5.40;;;;;;;;;;5019910;28;20026;-82
2021/05/24 19:20:08;;;;;;;8.90;5.40;;;;;;;;;;5019418;28;20312;-82
2021/05/24 19:22:34;;;;;;;7.55;4.95;;;;;;;;;;5018353;28;20066;-82
2021/05/24 19:25:01;;;;;;;15.18;8.38;;;;;;;;;;5018224;28;20506;-81
2021/05/24 19:27:27;;;;;;;14.52;9.80;;;;;;;;;;5034099;28;20073;-77
2021/05/24 19:29:53;;;;;;;5.20;4.50;;;;;;;;;;5018206;28;20340;-82
2021/05/24 19:32:19;;;;;;;5.47;3.95;;;;;;;;;;5018891;28;20156;-90
2021/05/24 19:34:47;;;;;;;8.68;4.28;;;;;;;;;;5031560;28;20017;-94
2021/05/24 19:37:13;;;;;;;5.93;4.78;;;;;;;;;;5022683;28;20059;-87
2021/05/24 19:39:39;;;;;;;8.70;4.30;;;;;;;;;;5020755;28;20030;-86
2021/05/24 19:42:05;;;;;;;8.02;4.93;;;;;;;;;;5018706;28;20344;-83
2021/05/24 19:44:31;;;;;;;5.90;3.90;;;;;;;;;;5045700;28;20107;-81
2021/05/24 19:47:03;;;;;;;6.63;4.82;;;;;;;;;;5038338;28;20071;-80
2021/05/24 20:24:43;;;;;;;7.53;4.25;;;;;;;;;;4997055;28;20077;-83
2021/05/24 20:27:09;;;;;;;5.57;3.80;;;;;;;;;;4989627;28;20034;-82
2021/05/24 20:29:37;;;;;;;4.75;3.65;;;;;;;;;;4991670;28;20034;-82
2021/05/24 20:32:05;;;;;;;5.80;4.28;;;;;;;;;;4993687;28;20046;-82
2021/05/24 20:34:31;;;;;;;5.97;3.85;;;;;;;;;;4987681;28;20039;-82
2021/05/24 20:36:59;;;;;;;5.70;4.00;;;;;;;;;;4979006;28;20077;-83
2021/05/24 20:39:25;;;;;;;8.32;3.90;;;;;;;;;;4995519;28;20037;-82
2021/05/24 20:41:52;;;;;;;4.00;3.47;;;;;;;;;;5001938;28;20327;-82
2021/05/24 20:44:18;;;;;;;5.65;3.72;;;;;;;;;;5018051;28;20304;-82
2021/05/24 20:46:44;;;;;;;8.50;3.70;;;;;;;;;;5017640;28;20037;-82
2021/05/24 20:49:10;;;;;;;5.03;3.55;;;;;;;;;;5017820;28;20038;-83
2021/05/24 20:51:36;;;;;;;4.68;3.55;;;;;;;;;;5025819;28;20030;-83
2021/05/24 20:54:03;;;;;;;4.82;3.42;;;;;;;;;;5018066;28;20068;-82
2021/05/24 20:56:29;;;;;;;6.20;3.88;;;;;;;;;;5016393;28;20033;-82
2021/05/24 20:58:56;;;;;;;4.95;3.72;;;;;;;;;;5018272;28;20053;-83
2021/05/24 21:04:26;;;;;;;4.38;3.78;;;;;;;;;;5017713;28;20036;-83
2021/05/24 21:06:52;;;;;;;4.68;3.75;;;;;;;;;;5017758;28;20029;-82
2021/05/24 21:09:18;;;;;;;5.45;3.30;;;;;;;;;;5018047;28;20028;-83
2021/05/24 21:11:44;;;;;;;4.70;3.50;;;;;;;;;;5017719;28;20057;-83
2021/05/24 21:14:10;;;;;;;5.30;3.50;;;;;;;;;;5016521;28;20030;-83